createdAt,value
2023-01-13T00:01:56.440Z,2.64
2023-01-13T00:04:23.471Z,2.65
2023-01-13T00:06:50.402Z,2.68
2023-01-13T00:09:17.358Z,2.78
2023-01-13T00:11:44.398Z,2.74
2023-01-13T00:14:11.309Z,2.77
2023-01-13T00:16:39.044Z,2.83
2023-01-13T00:19:06.300Z,2.71
2023-01-13T00:21:33.293Z,2.74
2023-01-13T00:24:00.247Z,2.70
2023-01-13T00:26:27.893Z,2.69
2023-01-13T00:28:58.562Z,2.77
2023-01-13T00:31:26.015Z,2.65
2023-01-13T00:33:53.337Z,2.58
2023-01-13T00:36:20.573Z,2.59
2023-01-13T00:38:47.577Z,2.64
2023-01-13T00:41:15.948Z,2.61
2023-01-13T00:43:43.696Z,2.81
2023-01-13T00:46:12.082Z,2.81
2023-01-13T00:48:39.472Z,2.86
2023-01-13T00:51:08.771Z,2.91
2023-01-13T00:53:37.400Z,2.88
2023-01-13T00:56:06.049Z,3.01
2023-01-13T00:58:33.874Z,2.97
2023-01-13T01:01:01.813Z,3.00
2023-01-13T01:03:28.901Z,3.09
2023-01-13T01:05:56.341Z,3.01
2023-01-13T01:08:23.805Z,3.05
2023-01-13T01:10:59.881Z,3.01
2023-01-13T01:13:26.983Z,3.01
2023-01-13T01:15:54.081Z,3.00
2023-01-13T01:18:22.051Z,3.01
2023-01-13T01:20:49.242Z,3.04
2023-01-13T01:23:16.375Z,3.04
2023-01-13T01:25:43.346Z,3.11
2023-01-13T01:28:10.279Z,3.02
2023-01-13T01:30:38.720Z,3.05
2023-01-13T01:33:06.258Z,3.14
2023-01-13T01:35:33.263Z,3.15
2023-01-13T01:38:00.266Z,3.05
2023-01-13T01:40:27.492Z,3.15
2023-01-13T01:42:55.075Z,3.11
2023-01-13T01:45:23.544Z,3.15
2023-01-13T01:47:56.122Z,3.05
2023-01-13T01:50:23.563Z,2.94
2023-01-13T01:52:53.777Z,2.95
2023-01-13T01:55:22.727Z,3.00
2023-01-13T01:58:05.724Z,3.00
2023-01-13T02:00:32.959Z,3.04
2023-01-13T02:03:00.379Z,3.07
2023-01-13T02:05:27.309Z,3.14
2023-01-13T02:07:54.944Z,3.18
2023-01-13T02:10:23.413Z,3.16
2023-01-13T02:12:50.945Z,3.17
2023-01-13T02:15:21.673Z,3.14
2023-01-13T02:17:51.968Z,3.01
2023-01-13T02:20:37.343Z,2.94
2023-01-13T02:23:04.249Z,2.93
2023-01-13T02:25:44.532Z,3.11
2023-01-13T02:28:31.804Z,3.13
2023-01-13T02:31:10.020Z,3.08
2023-01-13T02:33:55.765Z,2.98
2023-01-13T02:36:22.699Z,3.13
2023-01-13T02:38:52.392Z,3.13
2023-01-13T02:41:26.243Z,3.13
2023-01-13T02:43:56.924Z,3.18
2023-01-13T02:46:28.064Z,3.13
2023-01-13T02:48:57.542Z,3.07
2023-01-13T02:51:26.908Z,3.05
2023-01-13T02:53:58.381Z,3.18
2023-01-13T02:56:26.400Z,3.16
2023-01-13T02:58:55.338Z,3.08
2023-01-13T03:01:22.443Z,2.89
2023-01-13T03:03:49.485Z,2.97
2023-01-13T03:06:16.497Z,2.98
2023-01-13T03:08:45.237Z,2.99
2023-01-13T03:11:13.463Z,3.02
2023-01-13T03:14:01.150Z,3.05
2023-01-13T03:16:46.943Z,3.09
2023-01-13T03:19:36.050Z,3.08
2023-01-13T03:22:20.408Z,3.11
2023-01-13T03:24:52.981Z,3.02
2023-01-13T03:27:19.894Z,2.95
2023-01-13T03:29:59.136Z,2.79
2023-01-13T03:32:34.974Z,3.02
2023-01-13T03:35:22.316Z,3.14
2023-01-13T03:37:51.951Z,3.26
2023-01-13T03:40:21.763Z,3.17
2023-01-13T03:42:53.369Z,3.07
2023-01-13T03:45:20.737Z,3.13
2023-01-13T03:47:52.977Z,3.13
2023-01-13T03:50:31.856Z,3.19
2023-01-13T03:53:02.519Z,3.15
2023-01-13T03:55:31.922Z,3.21
2023-01-13T03:58:08.142Z,3.23
2023-01-13T04:00:39.943Z,3.25
2023-01-13T04:03:20.456Z,3.15
2023-01-13T04:05:51.343Z,3.31
2023-01-13T04:08:18.311Z,3.42
2023-01-13T04:10:51.506Z,3.45
2023-01-13T04:13:21.810Z,3.33
2023-01-13T04:15:49.473Z,3.29
2023-01-13T04:18:29.408Z,3.41
2023-01-13T04:20:58.184Z,3.23
2023-01-13T04:23:25.477Z,3.17
2023-01-13T04:25:52.515Z,3.13
2023-01-13T04:28:20.163Z,3.13
2023-01-13T04:30:47.481Z,3.09
2023-01-13T04:33:15.399Z,3.12
2023-01-13T04:35:43.653Z,5.49
2023-01-13T04:38:12.216Z,6.75
2023-01-13T04:40:39.846Z,7.04
2023-01-13T04:43:07.290Z,8.71
2023-01-13T04:45:34.714Z,9.48
2023-01-13T04:48:02.290Z,9.32
2023-01-13T04:50:29.462Z,9.59
2023-01-13T04:52:56.832Z,8.40
2023-01-13T04:55:25.345Z,7.79
2023-01-13T04:57:53.074Z,8.45
2023-01-13T05:00:21.474Z,7.73
2023-01-13T05:02:52.252Z,7.36
2023-01-13T05:05:19.958Z,7.22
2023-01-13T05:07:47.618Z,7.35
2023-01-13T05:10:15.739Z,6.60
2023-01-13T05:12:43.156Z,5.20
2023-01-13T05:15:13.742Z,4.50
2023-01-13T05:17:41.363Z,4.17
2023-01-13T05:20:09.304Z,4.02
2023-01-13T05:22:37.052Z,3.87
2023-01-13T05:25:04.711Z,3.81
2023-01-13T05:27:32.504Z,3.76
2023-01-13T05:30:00.237Z,3.73
2023-01-13T05:32:27.790Z,3.48
2023-01-13T05:34:55.716Z,3.48
2023-01-13T05:37:23.323Z,3.59
2023-01-13T05:39:50.288Z,3.56
2023-01-13T05:42:17.233Z,3.76
2023-01-13T05:44:44.237Z,3.57
2023-01-13T05:47:11.269Z,3.40
2023-01-13T05:49:38.246Z,3.29
2023-01-13T05:52:05.218Z,3.37
2023-01-13T05:54:32.179Z,3.33
2023-01-13T05:56:59.112Z,3.26
2023-01-13T05:59:26.041Z,3.33
2023-01-13T06:01:53.060Z,3.50
2023-01-13T06:04:20.476Z,3.40
2023-01-13T06:06:48.038Z,3.22
2023-01-13T06:09:15.732Z,3.28
2023-01-13T06:11:43.216Z,3.39
2023-01-13T06:14:10.652Z,3.09
2023-01-13T06:16:38.026Z,3.01
2023-01-13T06:19:05.346Z,3.12
2023-01-13T06:21:33.285Z,3.17
2023-01-13T06:24:00.549Z,2.97
2023-01-13T06:26:28.947Z,3.04
2023-01-13T06:28:55.898Z,3.09
2023-01-13T06:31:23.361Z,3.08
2023-01-13T06:33:55.526Z,3.06
2023-01-13T06:36:25.295Z,3.15
2023-01-13T06:38:54.708Z,3.36
2023-01-13T06:41:22.120Z,3.24
2023-01-13T06:43:49.050Z,3.21
2023-01-13T06:46:16.799Z,3.03
2023-01-13T06:48:43.765Z,2.98
2023-01-13T06:51:10.754Z,3.08
2023-01-13T06:53:37.752Z,2.95
2023-01-13T06:56:04.854Z,2.79
2023-01-13T06:58:31.810Z,2.91
2023-01-13T07:01:02.031Z,3.11
2023-01-13T07:03:29.199Z,3.11
2023-01-13T07:05:56.615Z,2.96
2023-01-13T07:08:23.866Z,2.94
2023-01-13T07:10:50.975Z,2.94
2023-01-13T07:13:17.940Z,2.95
2023-01-13T07:15:53.018Z,3.14
2023-01-13T07:18:20.050Z,3.05
2023-01-13T07:20:57.116Z,2.90
2023-01-13T07:23:25.192Z,3.04
2023-01-13T07:25:54.884Z,3.14
2023-01-13T07:28:21.931Z,3.34
2023-01-13T07:30:48.953Z,3.37
2023-01-13T07:33:15.925Z,3.47
2023-01-13T07:35:42.921Z,3.68
2023-01-13T07:38:10.327Z,3.81
2023-01-13T07:40:37.353Z,3.66
2023-01-13T07:43:04.332Z,3.55
2023-01-13T07:45:31.319Z,3.73
2023-01-13T07:47:58.354Z,3.52
2023-01-13T07:50:25.592Z,3.61
2023-01-13T07:52:52.518Z,3.69
2023-01-13T07:55:19.651Z,3.84
2023-01-13T07:57:47.845Z,3.90
2023-01-13T08:00:15.021Z,3.95
2023-01-13T08:02:42.277Z,3.86
2023-01-13T08:05:09.587Z,3.91
2023-01-13T08:07:36.522Z,3.89
2023-01-13T08:10:03.810Z,4.04
2023-01-13T08:12:31.153Z,4.06
2023-01-13T08:14:58.117Z,4.22
2023-01-13T08:17:25.126Z,4.19
2023-01-13T08:19:52.116Z,4.21
2023-01-13T08:22:19.389Z,4.24
2023-01-13T08:24:46.376Z,4.25
2023-01-13T08:27:13.338Z,4.26
2023-01-13T08:29:40.317Z,4.35
2023-01-13T08:32:07.810Z,4.35
2023-01-13T08:34:35.715Z,4.48
2023-01-13T08:37:02.861Z,4.56
2023-01-13T08:39:29.865Z,4.43
2023-01-13T08:41:56.864Z,4.61
2023-01-13T08:44:27.524Z,4.67
2023-01-13T08:46:54.545Z,4.64
2023-01-13T08:49:22.495Z,4.80
2023-01-13T08:51:50.032Z,4.77
2023-01-13T08:54:17.594Z,4.41
2023-01-13T08:56:45.331Z,4.48
2023-01-13T08:59:16.010Z,4.53
2023-01-13T09:01:43.565Z,4.64
2023-01-13T09:04:21.230Z,4.54
2023-01-13T09:06:48.719Z,4.72
2023-01-13T09:09:16.113Z,4.79
2023-01-13T09:11:44.857Z,4.77
2023-01-13T09:14:12.119Z,4.89
2023-01-13T09:16:39.177Z,4.76
2023-01-13T09:19:06.203Z,5.07
2023-01-13T09:21:33.642Z,5.19
2023-01-13T09:24:00.752Z,4.93
2023-01-13T09:26:27.856Z,5.07
2023-01-13T09:28:55.398Z,5.02
2023-01-13T09:31:22.419Z,5.01
2023-01-13T09:33:49.774Z,5.01
2023-01-13T09:36:17.478Z,5.06
2023-01-13T09:38:44.473Z,4.97
2023-01-13T09:41:26.103Z,5.03
2023-01-13T09:43:58.229Z,5.00
2023-01-13T09:46:41.520Z,5.06
2023-01-13T09:49:14.425Z,5.17
2023-01-13T09:51:47.410Z,5.31
2023-01-13T09:54:25.853Z,5.28
2023-01-13T09:56:52.839Z,5.37
2023-01-13T09:59:20.126Z,5.54
2023-01-13T10:01:57.889Z,5.71
2023-01-13T10:04:25.402Z,5.78
2023-01-13T10:06:54.950Z,5.88
2023-01-13T10:09:26.040Z,6.13
2023-01-13T10:11:56.444Z,6.18
2023-01-13T10:14:26.684Z,6.01
2023-01-13T10:16:53.658Z,5.74
2023-01-13T10:19:20.585Z,5.85
2023-01-13T10:21:56.770Z,5.75
2023-01-13T10:24:23.838Z,5.85
2023-01-13T10:27:09.635Z,5.85
2023-01-13T10:29:36.739Z,5.94
2023-01-13T10:32:03.899Z,6.07
2023-01-13T10:34:30.954Z,6.00
2023-01-13T10:37:04.701Z,6.09
2023-01-13T10:39:42.416Z,6.23
2023-01-13T10:42:16.752Z,6.19
2023-01-13T10:44:51.732Z,6.16
2023-01-13T10:47:20.684Z,5.98
2023-01-13T10:50:02.480Z,6.16
2023-01-13T10:52:34.704Z,6.04
2023-01-13T10:55:01.786Z,5.78
2023-01-13T10:57:29.043Z,5.81
2023-01-13T10:59:56.097Z,6.17
2023-01-13T11:02:26.921Z,6.13
2023-01-13T11:04:59.046Z,6.03
2023-01-13T11:07:32.219Z,6.04
2023-01-13T11:10:09.311Z,6.10
2023-01-13T11:12:48.416Z,6.13
2023-01-13T11:15:19.617Z,6.17
2023-01-13T11:17:53.638Z,6.19
2023-01-13T11:20:23.576Z,6.39
2023-01-13T11:22:54.417Z,6.18
2023-01-13T11:25:25.970Z,6.15
2023-01-13T11:27:57.724Z,6.00
2023-01-13T11:30:40.801Z,6.07
2023-01-13T11:33:10.488Z,5.99
2023-01-13T11:35:49.663Z,6.00
2023-01-13T11:38:52.991Z,6.05
2023-01-13T11:41:38.834Z,6.40
2023-01-13T11:44:05.742Z,6.15
2023-01-13T11:46:32.974Z,6.18
2023-01-13T11:49:00.795Z,6.14
2023-01-13T11:51:45.439Z,6.23
2023-01-13T11:54:27.498Z,6.06
2023-01-13T11:57:12.378Z,6.05
2023-01-13T11:59:56.367Z,5.97
2023-01-13T12:02:32.894Z,6.02
2023-01-13T12:05:15.244Z,6.06
2023-01-13T12:08:00.887Z,6.07
2023-01-13T12:10:27.833Z,6.19
2023-01-13T12:13:10.871Z,6.14
2023-01-13T12:15:40.580Z,6.01
2023-01-13T12:18:13.740Z,6.03
2023-01-13T12:20:52.708Z,6.20
2023-01-13T12:23:22.512Z,6.19
2023-01-13T12:25:53.326Z,6.06
2023-01-13T12:28:25.022Z,5.94
2023-01-13T12:30:54.819Z,5.89
2023-01-13T12:33:21.760Z,5.88
2023-01-13T12:36:00.508Z,5.95
2023-01-13T12:38:36.030Z,6.17
2023-01-13T12:41:18.139Z,6.09
2023-01-13T12:43:48.651Z,5.93
2023-01-13T12:46:18.705Z,5.89
2023-01-13T12:48:45.697Z,5.91
2023-01-13T12:51:21.894Z,6.12
2023-01-13T12:53:49.042Z,5.85
2023-01-13T12:56:22.152Z,5.80
2023-01-13T12:58:49.329Z,5.75
2023-01-13T13:01:16.618Z,5.86
2023-01-13T13:04:03.706Z,5.86
2023-01-13T13:06:31.376Z,5.79
2023-01-13T13:08:58.344Z,5.66
2023-01-13T13:11:31.310Z,5.70
2023-01-13T13:13:59.768Z,5.68
2023-01-13T13:16:26.745Z,5.57
2023-01-13T13:19:13.717Z,5.55
2023-01-13T13:22:00.042Z,5.48
2023-01-13T13:24:27.494Z,5.50
2023-01-13T13:26:54.651Z,5.64
2023-01-13T13:29:30.870Z,5.61
2023-01-13T13:31:57.798Z,5.59
2023-01-13T13:34:31.287Z,5.42
2023-01-13T13:37:30.834Z,5.61
2023-01-13T13:39:58.143Z,5.60
2023-01-13T13:42:27.031Z,5.61
2023-01-13T13:44:55.053Z,5.59
2023-01-13T13:47:22.075Z,5.49
2023-01-13T13:49:51.155Z,5.44
2023-01-13T13:52:30.284Z,5.35
2023-01-13T13:55:07.729Z,5.41
2023-01-13T13:57:39.929Z,5.47
2023-01-13T14:00:16.420Z,5.66
2023-01-13T14:02:50.585Z,5.71
2023-01-13T14:05:23.437Z,5.63
2023-01-13T14:08:14.251Z,5.52
2023-01-13T14:10:47.896Z,5.47
2023-01-13T14:13:18.797Z,5.52
2023-01-13T14:15:47.267Z,5.50
2023-01-13T14:18:16.115Z,5.53
2023-01-13T14:20:43.668Z,5.57
2023-01-13T14:23:17.978Z,5.54
2023-01-13T14:25:49.689Z,5.58
2023-01-13T14:28:49.752Z,5.59
2023-01-13T14:31:17.031Z,5.86
2023-01-13T14:33:45.825Z,5.74
2023-01-13T14:36:21.015Z,5.71
2023-01-13T14:39:08.229Z,5.69
2023-01-13T14:41:41.574Z,5.72
2023-01-13T14:44:16.777Z,5.61
2023-01-13T14:46:45.105Z,5.46
2023-01-13T14:49:15.165Z,5.55
2023-01-13T14:51:42.228Z,5.77
2023-01-13T14:54:27.921Z,5.73
2023-01-13T14:57:06.647Z,5.62
2023-01-13T14:59:39.866Z,5.64
2023-01-13T15:02:42.531Z,5.89
2023-01-13T15:05:18.680Z,5.71
2023-01-13T15:07:54.513Z,5.55
2023-01-13T15:10:50.721Z,5.58
2023-01-13T15:13:23.173Z,5.95
2023-01-13T15:15:51.242Z,8.77
2023-01-13T15:18:18.516Z,6.95
2023-01-13T15:20:45.894Z,6.40
2023-01-13T15:23:12.883Z,6.20
2023-01-13T15:25:41.257Z,6.02
2023-01-13T15:28:21.230Z,5.75
2023-01-13T15:30:49.137Z,5.72
2023-01-13T15:33:16.977Z,5.71
2023-01-13T15:35:45.858Z,5.56
2023-01-13T15:38:13.711Z,5.53
2023-01-13T15:40:40.986Z,5.54
2023-01-13T15:43:21.833Z,5.65
2023-01-13T15:45:49.077Z,5.65
2023-01-13T15:48:16.099Z,5.79
2023-01-13T15:50:43.136Z,5.81
2023-01-13T15:53:14.272Z,5.59
2023-01-13T15:55:42.356Z,5.61
2023-01-13T15:58:15.118Z,5.68
2023-01-13T16:00:42.420Z,5.72
2023-01-13T16:03:12.419Z,5.59
2023-01-13T16:05:40.196Z,5.49
2023-01-13T16:08:16.993Z,5.53
2023-01-13T16:10:44.113Z,5.63
2023-01-13T16:13:12.042Z,5.58
2023-01-13T16:15:43.652Z,5.54
2023-01-13T16:18:15.555Z,5.50
2023-01-13T16:20:42.646Z,8.78
2023-01-13T16:23:09.929Z,12.22
2023-01-13T16:25:40.267Z,9.31
2023-01-13T16:28:14.479Z,7.41
2023-01-13T16:30:41.582Z,6.71
2023-01-13T16:33:08.692Z,6.27
2023-01-13T16:35:35.906Z,6.18
2023-01-13T16:38:22.871Z,6.04
2023-01-13T16:40:49.952Z,6.05
2023-01-13T16:43:16.935Z,5.94
2023-01-13T16:45:43.931Z,5.63
2023-01-13T16:48:18.884Z,5.57
2023-01-13T16:50:45.975Z,5.48
2023-01-13T16:53:12.922Z,5.54
2023-01-13T16:55:40.750Z,5.72
2023-01-13T16:58:17.892Z,5.71
2023-01-13T17:00:45.476Z,5.57
2023-01-13T17:03:16.317Z,5.59
2023-01-13T17:05:49.531Z,5.60
2023-01-13T17:08:19.976Z,5.68
2023-01-13T17:10:50.653Z,5.71
2023-01-13T17:13:17.699Z,5.72
2023-01-13T17:15:45.521Z,5.72
2023-01-13T17:21:27.530Z,5.70
2023-01-13T17:23:56.219Z,5.76
2023-01-13T17:26:38.178Z,5.79
2023-01-13T17:29:07.947Z,5.79
2023-01-13T17:31:35.950Z,5.88
2023-01-13T17:34:04.155Z,5.76
2023-01-13T17:36:32.035Z,5.68
2023-01-13T17:38:59.331Z,5.72
2023-01-13T17:41:26.774Z,5.72
2023-01-13T17:44:03.308Z,5.68
2023-01-13T17:46:30.653Z,5.70
2023-01-13T17:48:57.796Z,5.83
2023-01-13T17:51:24.874Z,5.89
2023-01-13T17:53:53.534Z,5.75
2023-01-13T17:56:20.701Z,5.78
2023-01-13T17:58:47.883Z,5.62
2023-01-13T18:01:17.655Z,5.68
2023-01-13T18:03:46.126Z,5.49
2023-01-13T18:06:23.253Z,5.38
2023-01-13T18:08:51.979Z,5.32
2023-01-13T18:11:21.621Z,5.40
2023-01-13T18:13:51.872Z,5.43
2023-01-13T18:16:19.744Z,5.34
2023-01-13T18:18:50.052Z,5.42
2023-01-13T18:21:26.320Z,5.29
2023-01-13T18:23:53.431Z,5.40
2023-01-13T18:26:20.570Z,5.23
2023-01-13T18:28:47.664Z,5.29
2023-01-13T18:31:14.768Z,5.41
2023-01-13T18:33:41.915Z,5.33
2023-01-13T18:36:09.486Z,5.22
2023-01-13T18:38:36.604Z,5.22
2023-01-13T18:41:05.051Z,5.13
2023-01-13T18:43:33.287Z,5.13
2023-01-13T18:46:00.396Z,5.13
2023-01-13T18:48:27.580Z,5.00
2023-01-13T18:50:54.641Z,5.17
2023-01-13T18:53:21.703Z,5.29
2023-01-13T18:55:49.246Z,5.10
2023-01-13T18:58:16.332Z,5.22
2023-01-13T19:00:43.409Z,5.11
2023-01-13T19:03:10.492Z,5.30
2023-01-13T19:05:37.562Z,5.18
2023-01-13T19:08:05.621Z,5.24
2023-01-13T19:10:33.000Z,5.27
2023-01-13T19:13:00.268Z,5.30
2023-01-13T19:15:27.418Z,5.20
2023-01-13T19:17:54.767Z,5.15
2023-01-13T19:20:21.870Z,5.09
2023-01-13T19:22:48.921Z,5.25
2023-01-13T19:25:16.029Z,5.18
2023-01-13T19:28:04.596Z,5.19
2023-01-13T19:30:35.514Z,5.23
2023-01-13T19:33:02.677Z,5.28
2023-01-13T19:35:29.878Z,5.26
2023-01-13T19:37:57.050Z,5.24
2023-01-13T19:40:30.519Z,5.26
2023-01-13T19:42:57.727Z,5.32
2023-01-13T19:45:28.127Z,5.32
2023-01-13T19:47:56.288Z,5.47
2023-01-13T19:50:23.901Z,5.40
2023-01-13T19:52:51.108Z,5.29
2023-01-13T19:55:18.339Z,5.29
2023-01-13T19:57:45.516Z,5.18
2023-01-13T20:00:15.634Z,5.23
2023-01-13T20:02:42.692Z,5.17
2023-01-13T20:05:09.906Z,5.17
2023-01-13T20:07:37.036Z,5.09
2023-01-13T20:10:04.603Z,4.90
2023-01-13T20:12:31.725Z,4.97
2023-01-13T20:14:58.924Z,4.96
2023-01-13T20:17:25.999Z,4.78
2023-01-13T20:19:53.320Z,4.92
2023-01-13T20:22:20.450Z,5.03
2023-01-13T20:24:47.580Z,4.99
2023-01-13T20:27:15.585Z,4.96
2023-01-13T20:29:42.835Z,4.94
2023-01-13T20:32:09.963Z,4.90
2023-01-13T20:34:37.234Z,4.85
2023-01-13T20:37:04.320Z,4.84
2023-01-13T20:39:34.820Z,4.66
2023-01-13T20:42:01.996Z,4.58
2023-01-13T20:44:29.206Z,4.54
2023-01-13T20:46:56.376Z,4.64
2023-01-13T20:49:24.951Z,4.54
2023-01-13T20:51:52.085Z,4.47
2023-01-13T20:54:19.763Z,4.45
2023-01-13T20:56:46.877Z,4.59
2023-01-13T20:59:14.368Z,4.58
2023-01-13T21:01:41.721Z,4.61
2023-01-13T21:04:09.066Z,4.61
2023-01-13T21:06:36.582Z,4.40
2023-01-13T21:09:04.016Z,4.61
2023-01-13T21:11:31.211Z,4.76
2023-01-13T21:13:58.264Z,4.75
2023-01-13T21:16:26.108Z,4.77
2023-01-13T21:18:53.571Z,4.67
2023-01-13T21:21:20.614Z,4.72
2023-01-13T21:23:47.770Z,4.84
2023-01-13T21:26:14.870Z,4.87
2023-01-13T21:28:41.928Z,4.78
2023-01-13T21:31:09.708Z,4.72
2023-01-13T21:33:36.993Z,4.74
2023-01-13T21:36:08.883Z,4.88
2023-01-13T21:38:35.850Z,4.79
2023-01-13T21:41:05.258Z,4.82
2023-01-13T21:43:33.162Z,4.83
2023-01-13T21:46:00.255Z,4.72
2023-01-13T21:48:27.409Z,4.79
2023-01-13T21:50:54.644Z,4.64
2023-01-13T21:53:21.742Z,4.84
2023-01-13T21:55:51.866Z,4.73
2023-01-13T21:58:18.926Z,4.71
2023-01-13T22:00:49.284Z,4.77
2023-01-13T22:03:23.511Z,4.83
2023-01-13T22:05:55.587Z,4.91
2023-01-13T22:08:22.765Z,4.92
2023-01-13T22:10:49.866Z,4.85
2023-01-13T22:13:23.195Z,4.90
2023-01-13T22:15:53.864Z,4.94
2023-01-13T22:18:21.031Z,5.04
2023-01-13T22:20:48.579Z,5.02
2023-01-13T22:23:15.633Z,5.09
2023-01-13T22:25:43.147Z,5.10
2023-01-13T22:28:11.219Z,5.13
2023-01-13T22:30:39.059Z,5.14
2023-01-13T22:33:06.206Z,5.17
2023-01-13T22:35:34.087Z,5.02
2023-01-13T22:38:01.141Z,5.11
2023-01-13T22:40:28.228Z,5.03
2023-01-13T22:42:55.354Z,5.09
2023-01-13T22:45:22.995Z,5.08
2023-01-13T22:47:50.071Z,5.17
2023-01-13T22:50:17.130Z,5.09
2023-01-13T22:52:44.147Z,5.19
2023-01-13T22:55:11.294Z,5.17
2023-01-13T22:57:47.344Z,5.14
2023-01-13T23:00:16.927Z,5.02
2023-01-13T23:02:44.012Z,5.04
2023-01-13T23:05:11.165Z,5.08
2023-01-13T23:07:38.215Z,5.07
2023-01-13T23:10:05.676Z,5.17
2023-01-13T23:12:32.751Z,5.21
2023-01-13T23:14:59.833Z,5.16
2023-01-13T23:17:48.123Z,5.05
2023-01-13T23:20:17.014Z,5.01
2023-01-13T23:22:44.089Z,5.02
2023-01-13T23:25:11.581Z,5.11
2023-01-13T23:27:38.652Z,4.99
2023-01-13T23:30:07.764Z,4.94
2023-01-13T23:32:36.079Z,5.04
2023-01-13T23:35:03.356Z,5.13
2023-01-13T23:37:30.407Z,5.09
2023-01-13T23:39:57.443Z,4.99
2023-01-13T23:42:24.925Z,5.06
2023-01-13T23:44:52.380Z,5.12
2023-01-13T23:47:22.402Z,5.01
2023-01-13T23:49:49.576Z,5.03
2023-01-13T23:52:16.628Z,5.00
2023-01-13T23:54:44.052Z,5.01
2023-01-13T23:57:11.144Z,5.03
2023-01-13T23:59:38.244Z,5.06
